Time;durP1;ratioP1;P1;durP2;ratioP2;P2;SDS_P1;SDS_P2;PMS_P1;PMS_P2;Temp;Humidity;BMP_temperature;BMP_pressure;BME280_temperature;BME280_humidity;BME280_pressure;Samples;Min_cycle;Max_cycle;Signal;HPM_P1;HPM_P2
2021/07/27 00:01:10;;;;;;;19.98;12.02;;;18.00;99.90;;;;;;4839790;29;20041;-86
2021/07/27 00:03:39;;;;;;;20.88;11.93;;;18.10;99.90;;;;;;4855517;29;20044;-85
2021/07/27 00:06:06;;;;;;;24.75;11.95;;;18.10;99.90;;;;;;4839836;29;20046;-86
2021/07/27 00:08:32;;;;;;;21.33;12.35;;;18.10;99.90;;;;;;4842691;29;20088;-85
2021/07/27 00:11:05;;;;;;;28.65;15.63;;;18.10;99.90;;;;;;4842874;29;20029;-84
2021/07/27 00:13:31;;;;;;;41.80;22.25;;;18.00;99.90;;;;;;4843378;29;20068;-86
2021/07/27 00:15:56;;;;;;;34.72;20.10;;;17.90;99.90;;;;;;4857746;29;20036;-85
2021/07/27 00:18:22;;;;;;;35.83;19.30;;;18.00;99.90;;;;;;4911398;29;20120;-87
2021/07/27 00:20:48;;;;;;;29.92;16.77;;;17.90;99.90;;;;;;4911268;29;20108;-86
2021/07/27 00:23:14;;;;;;;26.17;13.90;;;18.00;99.90;;;;;;4911140;29;20112;-86
2021/07/27 00:25:41;;;;;;;30.05;15.45;;;18.00;99.90;;;;;;4917918;29;20147;-87
2021/07/27 00:28:06;;;;;;;32.72;17.55;;;18.00;99.90;;;;;;4931163;29;20039;-87
2021/07/27 00:30:32;;;;;;;27.48;15.00;;;18.00;99.90;;;;;;4915356;29;20056;-87
2021/07/27 00:32:58;;;;;;;32.33;17.60;;;17.90;99.90;;;;;;4932099;29;20063;-86
2021/07/27 00:35:25;;;;;;;28.20;15.82;;;17.90;99.90;;;;;;4915096;29;20064;-86
2021/07/27 00:38:09;;;;;;;25.67;14.20;;;18.00;99.90;;;;;;4897206;29;20047;-87
2021/07/27 00:40:41;;;;;;;25.88;15.07;;;18.00;99.90;;;;;;4896373;29;20032;-87
2021/07/27 00:43:11;;;;;;;27.88;15.65;;;17.90;99.90;;;;;;4912270;29;20075;-87
2021/07/27 00:45:37;;;;;;;26.40;14.68;;;18.00;99.90;;;;;;4896346;29;20060;-86
2021/07/27 00:48:03;;;;;;;26.92;15.43;;;18.00;99.90;;;;;;4896137;29;20024;-89
2021/07/27 00:50:29;;;;;;;29.17;15.55;;;18.00;99.90;;;;;;4896462;29;20079;-88
2021/07/27 00:53:00;;;;;;;30.95;18.77;;;18.10;99.90;;;;;;4896304;29;20051;-87
2021/07/27 00:55:26;;;;;;;32.78;18.50;;;17.90;99.90;;;;;;4896178;29;20024;-87
2021/07/27 00:57:52;;;;;;;32.20;17.08;;;17.90;99.90;;;;;;4896046;29;20040;-87
2021/07/27 01:00:18;;;;;;;35.83;21.40;;;18.00;99.90;;;;;;4896346;29;20033;-87
2021/07/27 01:02:43;;;;;;;44.85;26.95;;;18.00;99.90;;;;;;4896003;29;20044;-86
2021/07/27 01:05:10;;;;;;;42.80;23.63;;;17.90;99.90;;;;;;4896310;29;20029;-87
2021/07/27 01:07:37;;;;;;;38.00;22.67;;;17.90;99.90;;;;;;4895908;29;20041;-87
2021/07/27 01:10:07;;;;;;;28.40;15.80;;;17.90;99.90;;;;;;4895993;29;20037;-86
2021/07/27 01:12:33;;;;;;;40.00;24.17;;;17.90;99.90;;;;;;4895732;29;20059;-87
2021/07/27 01:14:59;;;;;;;37.70;21.95;;;17.90;99.90;;;;;;4895921;29;20037;-85
2021/07/27 01:17:25;;;;;;;42.17;23.85;;;17.90;99.90;;;;;;4930201;29;20480;-86
2021/07/27 01:20:30;;;;;;;41.38;24.25;;;17.80;99.90;;;;;;4913542;29;20032;-87
2021/07/27 01:39:27;;;;;;;41.50;23.45;;;17.90;99.90;;;;;;4911050;29;20036;-87
2021/07/27 01:42:10;;;;;;;39.75;22.88;;;17.80;99.90;;;;;;4895510;29;20064;-88
2021/07/27 01:44:45;;;;;;;39.78;22.42;;;17.90;99.90;;;;;;4912217;29;20036;-87
2021/07/27 01:47:21;;;;;;;39.85;22.88;;;17.90;99.90;;;;;;4910830;29;20076;-88
2021/07/27 01:49:48;;;;;;;44.03;25.08;;;17.90;99.90;;;;;;4910850;29;20037;-87
2021/07/27 01:52:15;;;;;;;46.15;25.35;;;17.80;99.90;;;;;;4895207;29;20044;-87
2021/07/27 01:55:08;;;;;;;46.55;26.25;;;17.80;99.90;;;;;;4910867;29;20496;-88
2021/07/27 01:57:28;;;;;;;38.47;23.50;;;17.80;99.90;;;;;;4894925;29;20119;-88
2021/07/27 01:59:57;;;;;;;46.38;27.27;;;17.80;99.90;;;;;;4910839;29;20033;-87
2021/07/27 02:02:23;;;;;;;40.53;23.20;;;17.70;99.90;;;;;;4910981;29;20492;-88
2021/07/27 02:04:48;;;;;;;37.38;21.70;;;17.70;99.90;;;;;;4910847;29;20032;-88
2021/07/27 02:07:14;;;;;;;34.20;22.45;;;17.80;99.90;;;;;;4895035;29;20422;-90
2021/07/27 02:09:42;;;;;;;34.85;22.00;;;17.70;99.90;;;;;;4910468;29;20071;-88
2021/07/27 02:12:17;;;;;;;34.58;21.17;;;17.80;99.90;;;;;;4910475;29;20045;-88
2021/07/27 02:15:04;;;;;;;34.40;20.30;;;17.80;99.90;;;;;;4910793;29;20033;-87
2021/07/27 02:17:29;;;;;;;40.30;24.92;;;17.70;99.90;;;;;;4891578;29;20037;-88
2021/07/27 02:19:55;;;;;;;39.13;24.92;;;17.70;99.90;;;;;;4891884;29;20061;-88
2021/07/27 02:22:21;;;;;;;37.63;23.55;;;17.70;99.90;;;;;;4891943;29;20041;-87
2021/07/27 02:24:46;;;;;;;38.78;25.95;;;17.70;99.90;;;;;;4891597;29;20034;-87
2021/07/27 02:27:12;;;;;;;36.90;22.67;;;17.60;99.90;;;;;;4891281;29;20041;-88
2021/07/27 02:29:38;;;;;;;38.47;24.92;;;17.60;99.90;;;;;;4891027;29;20085;-89
2021/07/27 02:32:03;;;;;;;42.00;26.92;;;17.70;99.90;;;;;;4891578;29;20049;-86
2021/07/27 02:34:32;;;;;;;40.70;26.50;;;17.60;99.90;;;;;;4891384;29;20029;-88
2021/07/27 02:37:02;;;;;;;38.45;26.05;;;17.60;99.90;;;;;;4878978;29;20041;-87
2021/07/27 02:39:28;;;;;;;38.30;24.60;;;17.60;99.90;;;;;;4894363;29;20038;-88
2021/07/27 02:41:53;;;;;;;37.25;23.13;;;17.70;99.90;;;;;;4894679;29;20116;-88
2021/07/27 02:44:19;;;;;;;38.10;23.20;;;17.70;99.90;;;;;;4894345;29;20060;-88
2021/07/27 02:46:44;;;;;;;35.85;22.55;;;17.60;99.90;;;;;;4894294;29;20084;-89
2021/07/27 02:49:11;;;;;;;36.90;23.00;;;17.70;99.90;;;;;;4894158;29;20040;-89
2021/07/27 02:51:36;;;;;;;34.88;23.38;;;17.70;99.90;;;;;;4894104;29;20409;-88
2021/07/27 02:54:02;;;;;;;41.33;24.45;;;17.70;99.90;;;;;;4894186;29;20056;-88
2021/07/27 02:56:27;;;;;;;37.28;24.48;;;17.60;99.90;;;;;;4894241;29;20036;-88
2021/07/27 02:58:53;;;;;;;43.03;24.85;;;17.60;99.90;;;;;;4893715;29;20069;-88
2021/07/27 03:01:19;;;;;;;37.60;23.42;;;17.60;99.90;;;;;;4909644;29;20035;-89
2021/07/27 03:03:48;;;;;;;38.35;24.00;;;17.60;99.90;;;;;;4893840;29;20039;-88
2021/07/27 03:06:16;;;;;;;36.55;23.48;;;17.60;99.90;;;;;;4894301;29;20385;-88
2021/07/27 03:11:23;;;;;;;39.25;24.02;;;17.50;99.90;;;;;;4909572;29;20040;-88
2021/07/27 03:13:49;;;;;;;43.33;26.10;;;17.40;99.90;;;;;;4893746;29;20127;-88
2021/07/27 03:16:17;;;;;;;42.35;25.52;;;17.40;99.90;;;;;;4903599;29;20397;-88
2021/07/27 03:18:52;;;;;;;36.10;23.77;;;17.40;99.90;;;;;;4928334;29;20038;-89
2021/07/27 03:21:19;;;;;;;37.00;23.30;;;17.40;99.90;;;;;;4912593;29;20032;-88
2021/07/27 03:23:49;;;;;;;40.22;24.35;;;17.40;99.90;;;;;;4912542;29;20036;-88
2021/07/27 03:26:15;;;;;;;;;;;17.40;99.90;;;;;;4928700;29;20080;-89
2021/07/27 03:28:41;;;;;;;37.63;21.50;;;17.50;99.90;;;;;;4896764;29;19915;-89
2021/07/27 03:31:07;;;;;;;39.70;23.05;;;17.50;99.90;;;;;;4912684;29;20059;-88
2021/07/27 03:33:33;;;;;;;33.08;22.17;;;17.50;99.90;;;;;;4928534;29;20055;-88
2021/07/27 03:35:58;;;;;;;39.30;23.30;;;17.50;99.90;;;;;;4910386;29;20060;-89
2021/07/27 03:38:24;;;;;;;40.60;24.70;;;17.50;99.90;;;;;;4894798;29;20055;-89
2021/07/27 03:40:50;;;;;;;37.95;23.13;;;17.60;99.90;;;;;;4894539;29;20043;-89
2021/07/27 03:43:15;;;;;;;34.83;23.52;;;17.60;99.90;;;;;;4896838;29;20032;-89
2021/07/27 03:45:41;;;;;;;36.65;24.30;;;17.60;99.90;;;;;;4897249;29;20040;-89
2021/07/27 03:48:07;;;;;;;37.50;24.17;;;17.60;99.90;;;;;;4912799;29;20036;-89
2021/07/27 03:50:33;;;;;;;39.60;23.63;;;17.60;99.90;;;;;;4897522;29;20040;-88
2021/07/27 03:52:58;;;;;;;37.05;23.35;;;17.60;99.90;;;;;;4897283;29;20048;-88
2021/07/27 03:55:24;;;;;;;38.60;23.35;;;17.60;99.90;;;;;;4913113;29;20083;-89
2021/07/27 03:57:56;;;;;;;38.42;24.00;;;17.50;99.90;;;;;;4897242;29;20036;-89
2021/07/27 04:00:23;;;;;;;35.97;23.15;;;17.60;99.90;;;;;;4897265;29;20032;-90
2021/07/27 04:02:52;;;;;;;36.72;23.85;;;17.50;99.90;;;;;;4897204;29;20036;-89
2021/07/27 04:05:17;;;;;;;40.30;24.35;;;17.50;99.90;;;;;;4897274;29;20063;-89
2021/07/27 04:07:43;;;;;;;37.17;24.55;;;17.50;99.90;;;;;;4897405;29;20133;-90
2021/07/27 04:10:09;;;;;;;41.17;26.63;;;17.40;99.90;;;;;;4897207;29;20048;-90
2021/07/27 04:12:35;;;;;;;37.50;23.60;;;17.40;99.90;;;;;;4912751;29;20056;-89
2021/07/27 04:15:01;;;;;;;32.00;21.73;;;17.40;99.90;;;;;;4902360;23;20045;-89
2021/07/27 04:17:27;;;;;;;33.08;22.05;;;17.40;99.90;;;;;;4896785;29;20042;-90
2021/07/27 04:19:53;;;;;;;30.58;20.23;;;17.40;99.90;;;;;;4896709;29;20032;-86
2021/07/27 04:22:19;;;;;;;36.45;23.80;;;17.40;99.90;;;;;;4896728;29;20036;-89
2021/07/27 04:24:45;;;;;;;40.92;26.52;;;17.40;99.90;;;;;;4912593;29;20043;-88
2021/07/27 04:27:10;;;;;;;34.20;23.23;;;17.30;99.90;;;;;;4896800;29;20043;-90
2021/07/27 04:29:36;;;;;;;37.05;24.17;;;17.30;99.90;;;;;;4896926;29;20071;-87
2021/07/27 04:32:04;;;;;;;38.38;24.13;;;17.30;99.90;;;;;;4882645;29;20047;-89
2021/07/27 04:34:30;;;;;;;30.85;20.48;;;17.30;99.90;;;;;;4892458;29;20029;-89
2021/07/27 04:36:56;;;;;;;34.15;20.80;;;17.40;99.90;;;;;;4893287;29;20501;-89
2021/07/27 04:39:21;;;;;;;29.40;19.88;;;17.40;99.90;;;;;;4893002;29;20085;-89
2021/07/27 04:41:47;;;;;;;29.95;19.88;;;17.40;99.90;;;;;;4893179;29;20030;-89
2021/07/27 04:44:12;;;;;;;27.65;19.20;;;17.30;99.90;;;;;;4893285;29;20125;-90
2021/07/27 04:46:38;;;;;;;30.52;18.75;;;17.40;99.90;;;;;;4891404;29;20025;-90
2021/07/27 04:49:04;;;;;;;29.00;20.33;;;17.40;99.90;;;;;;4886465;29;20037;-88
2021/07/27 04:51:30;;;;;;;32.20;20.77;;;17.40;99.90;;;;;;4879635;29;20048;-90
2021/07/27 04:53:58;;;;;;;28.20;20.02;;;17.40;99.90;;;;;;4873813;29;20041;-89
2021/07/27 04:56:28;;;;;;;34.88;22.17;;;17.50;99.90;;;;;;4873815;29;20105;-90
2021/07/27 04:58:53;;;;;;;32.78;20.45;;;17.60;99.90;;;;;;4873569;29;20072;-89
2021/07/27 05:01:19;;;;;;;28.83;19.48;;;17.50;99.90;;;;;;4905391;23;20040;-88
2021/07/27 05:03:45;;;;;;;25.95;17.88;;;17.70;99.90;;;;;;4904119;23;20069;-89
2021/07/27 05:06:10;;;;;;;28.55;19.75;;;17.70;99.90;;;;;;4892597;29;20029;-89
2021/07/27 05:08:36;;;;;;;26.65;17.42;;;17.80;99.90;;;;;;4862066;29;20060;-88
2021/07/27 05:11:02;;;;;;;28.85;19.27;;;17.80;99.90;;;;;;4854426;29;20053;-89
2021/07/27 05:13:31;;;;;;;24.83;17.98;;;17.90;99.90;;;;;;4876838;29;20052;-88
2021/07/27 05:16:01;;;;;;;23.92;18.23;;;17.90;99.90;;;;;;4868281;29;20073;-89
2021/07/27 05:18:27;;;;;;;29.02;20.75;;;18.00;99.90;;;;;;4910964;29;20036;-88
2021/07/27 05:20:52;;;;;;;31.27;20.80;;;18.00;99.90;;;;;;4895123;29;20039;-89
2021/07/27 05:23:18;;;;;;;29.50;20.20;;;17.90;99.90;;;;;;4895094;29;20040;-87
2021/07/27 05:25:43;;;;;;;26.98;19.92;;;18.00;99.90;;;;;;4912082;29;20048;-88
2021/07/27 05:28:09;;;;;;;25.73;18.05;;;17.90;99.90;;;;;;4895353;29;20412;-89
2021/07/27 05:30:38;;;;;;;26.60;17.20;;;17.90;99.90;;;;;;4895087;29;20115;-88
2021/07/27 05:33:06;;;;;;;22.77;16.67;;;17.90;99.90;;;;;;4895313;29;20056;-88
2021/07/27 05:35:32;;;;;;;25.98;17.42;;;17.90;99.90;;;;;;4879017;29;20040;-89
2021/07/27 05:37:58;;;;;;;24.70;17.58;;;17.80;99.90;;;;;;4860568;29;20062;-88
2021/07/27 05:40:23;;;;;;;23.85;17.23;;;17.70;99.90;;;;;;4876062;29;20041;-89
2021/07/27 05:42:49;;;;;;;19.83;15.05;;;17.70;99.90;;;;;;4876281;29;20036;-89
2021/07/27 05:45:15;;;;;;;20.98;14.73;;;17.80;99.90;;;;;;4876044;29;20029;-88
2021/07/27 05:47:40;;;;;;;21.13;15.10;;;17.90;99.90;;;;;;4875402;29;20043;-88
2021/07/27 05:50:09;;;;;;;19.02;14.38;;;17.90;99.90;;;;;;4875969;29;20048;-90
2021/07/27 05:52:35;;;;;;;22.50;14.20;;;18.00;99.90;;;;;;4875953;29;20049;-89
2021/07/27 05:55:01;;;;;;;16.33;11.52;;;18.10;99.90;;;;;;4876050;29;20177;-88
2021/07/27 05:57:26;;;;;;;16.35;12.82;;;18.20;99.90;;;;;;4875934;29;20041;-89
2021/07/27 05:59:52;;;;;;;17.92;13.23;;;18.30;99.90;;;;;;4874790;29;20056;-90
2021/07/27 06:02:19;;;;;;;14.98;10.98;;;18.30;99.90;;;;;;4878108;29;20048;-87
2021/07/27 06:04:45;;;;;;;14.98;11.15;;;18.40;99.90;;;;;;4893628;29;20040;-89
2021/07/27 06:07:11;;;;;;;17.13;12.23;;;18.60;99.90;;;;;;4878484;29;20037;-87
2021/07/27 06:09:36;;;;;;;20.25;13.80;;;18.60;99.90;;;;;;4894340;29;20032;-87
2021/07/27 06:12:03;;;;;;;15.32;11.82;;;18.50;99.90;;;;;;4878214;29;20036;-86
2021/07/27 06:14:28;;;;;;;17.25;12.75;;;18.80;99.90;;;;;;4909211;29;20036;-87
2021/07/27 06:16:54;;;;;;;22.48;14.65;;;18.80;99.90;;;;;;4912494;29;20075;-87
2021/07/27 06:19:20;;;;;;;19.52;13.02;;;18.90;99.90;;;;;;4912620;29;20039;-87
2021/07/27 06:21:46;;;;;;;15.55;12.35;;;19.10;99.90;;;;;;4912857;29;20125;-87
2021/07/27 06:24:12;;;;;;;15.52;11.68;;;19.30;99.90;;;;;;4928345;29;20043;-86
2021/07/27 06:26:38;;;;;;;17.38;11.35;;;19.40;99.90;;;;;;4928034;29;20035;-85
2021/07/27 06:29:04;;;;;;;19.25;12.50;;;19.40;99.90;;;;;;4896794;29;20071;-85
2021/07/27 06:31:31;;;;;;;18.00;12.05;;;19.30;99.90;;;;;;4911827;29;20040;-86
2021/07/27 06:33:57;;;;;;;18.45;12.55;;;19.60;99.90;;;;;;4912138;29;20039;-86
2021/07/27 06:36:23;;;;;;;19.92;14.20;;;19.60;99.90;;;;;;4902903;29;20112;-87
2021/07/27 06:38:49;;;;;;;15.43;11.65;;;19.30;99.90;;;;;;4890602;29;20446;-87
2021/07/27 06:41:14;;;;;;;14.27;10.25;;;19.60;99.90;;;;;;4880091;29;20036;-87
2021/07/27 06:43:42;;;;;;;15.15;11.95;;;19.80;99.90;;;;;;4888437;29;20033;-88
2021/07/27 06:48:54;;;;;;;16.13;11.73;;;19.90;99.90;;;;;;4889500;23;20123;-89
2021/07/27 06:51:20;;;;;;;14.05;11.13;;;19.70;99.90;;;;;;4906501;29;20401;-88
2021/07/27 06:53:46;;;;;;;16.45;11.18;;;19.60;99.90;;;;;;4909300;29;20037;-88
2021/07/27 06:56:12;;;;;;;18.35;12.40;;;19.50;99.90;;;;;;4909408;29;20052;-87
2021/07/27 06:58:39;;;;;;;15.52;12.18;;;19.50;99.90;;;;;;4893593;29;20037;-88
2021/07/27 07:01:07;;;;;;;15.95;10.82;;;19.40;99.90;;;;;;4908866;29;20044;-87
2021/07/27 07:03:33;;;;;;;15.10;11.90;;;19.20;99.90;;;;;;4893773;29;20039;-87
2021/07/27 07:05:59;;;;;;;16.90;12.65;;;19.20;99.90;;;;;;4909369;29;20036;-87
2021/07/27 07:08:25;;;;;;;16.13;11.05;;;19.30;99.90;;;;;;4893306;29;20063;-87
2021/07/27 07:10:58;;;;;;;15.27;11.70;;;19.50;99.90;;;;;;4909189;29;20123;-88
2021/07/27 07:13:24;;;;;;;14.75;10.27;;;19.60;99.90;;;;;;4909127;29;20044;-87
2021/07/27 07:15:50;;;;;;;16.67;10.80;;;19.50;99.90;;;;;;4908976;29;20039;-87
2021/07/27 07:18:16;;;;;;;12.13;9.63;;;19.40;99.90;;;;;;4893394;29;20032;-87
2021/07/27 07:20:42;;;;;;;15.18;10.27;;;19.60;99.90;;;;;;4872852;29;20032;-86
2021/07/27 07:23:07;;;;;;;14.48;10.80;;;19.70;99.90;;;;;;4881208;29;20056;-87
2021/07/27 07:25:33;;;;;;;13.23;10.60;;;19.50;99.90;;;;;;4892790;29;20029;-84
2021/07/27 07:27:58;;;;;;;14.27;10.43;;;19.50;99.90;;;;;;4908967;29;20029;-86
2021/07/27 07:30:25;;;;;;;13.93;9.50;;;19.60;99.90;;;;;;4908776;29;20040;-89
2021/07/27 07:32:51;;;;;;;12.48;9.40;;;19.60;99.90;;;;;;4893005;29;20041;-88
2021/07/27 07:35:22;;;;;;;13.73;10.20;;;19.60;99.90;;;;;;4893283;29;20108;-88
2021/07/27 07:40:34;;;;;;;13.95;8.60;;;20.00;99.90;;;;;;4908715;29;20060;-87
2021/07/27 07:43:02;;;;;;;12.20;9.65;;;20.20;99.90;;;;;;4893050;29;20032;-87
2021/07/27 07:45:29;;;;;;;15.65;10.18;;;20.50;99.90;;;;;;4893342;29;20041;-87
2021/07/27 07:47:55;;;;;;;10.82;8.98;;;20.60;99.90;;;;;;4892757;29;20084;-89
2021/07/27 07:50:22;;;;;;;14.82;11.43;;;20.50;99.90;;;;;;4908689;29;20441;-89
2021/07/27 07:52:57;;;;;;;14.88;11.70;;;20.20;99.90;;;;;;4908696;29;20044;-86
2021/07/27 07:55:22;;;;;;;15.18;10.60;;;20.30;99.90;;;;;;4908680;29;20042;-88
2021/07/27 07:57:48;;;;;;;10.95;9.20;;;20.30;99.90;;;;;;4892714;29;20079;-87
2021/07/27 08:00:14;;;;;;;13.13;9.57;;;20.40;99.90;;;;;;4924285;29;20043;-87
2021/07/27 08:02:40;;;;;;;14.45;10.15;;;20.10;99.90;;;;;;4908811;29;20159;-89
2021/07/27 08:05:06;;;;;;;15.30;9.85;;;20.30;99.90;;;;;;4924277;29;20040;-90
2021/07/27 08:07:33;;;;;;;15.43;10.75;;;20.50;99.90;;;;;;4908253;29;20033;-88
2021/07/27 08:09:59;;;;;;;14.25;10.80;;;20.50;99.90;;;;;;4908427;29;20033;-88
2021/07/27 08:12:25;;;;;;;12.48;9.90;;;20.60;99.90;;;;;;4908430;29;20060;-88
2021/07/27 08:14:51;;;;;;;13.77;10.00;;;20.70;99.90;;;;;;4924088;29;20033;-88
2021/07/27 08:17:16;;;;;;;9.60;7.88;;;20.60;99.90;;;;;;4901895;29;20136;-88
2021/07/27 08:19:43;;;;;;;13.32;9.77;;;20.70;99.90;;;;;;4892875;29;20033;-87
2021/07/27 08:22:08;;;;;;;11.68;8.98;;;20.60;99.90;;;;;;4883648;29;20104;-90
2021/07/27 08:24:36;;;;;;;14.07;10.30;;;20.40;99.90;;;;;;4892218;29;20040;-88
2021/07/27 08:27:07;;;;;;;13.30;9.85;;;20.50;99.90;;;;;;4877178;29;20044;-87
2021/07/27 08:29:36;;;;;;;16.27;11.15;;;20.40;99.90;;;;;;4880261;29;20045;-87
2021/07/27 08:32:07;;;;;;;12.83;9.17;;;20.50;99.90;;;;;;4880516;29;20085;-87
2021/07/27 08:34:35;;;;;;;12.93;8.45;;;20.60;99.90;;;;;;4880635;29;20281;-88
2021/07/27 08:37:00;;;;;;;11.90;9.00;;;20.60;99.90;;;;;;4880232;29;20068;-87
2021/07/27 08:39:26;;;;;;;15.35;10.25;;;20.60;99.90;;;;;;4911573;29;20489;-88
2021/07/27 08:41:53;;;;;;;12.40;9.00;;;20.70;99.90;;;;;;4896182;29;20028;-86
2021/07/27 08:44:20;;;;;;;9.27;8.30;;;21.10;99.90;;;;;;4911396;29;20116;-86
2021/07/27 08:46:47;;;;;;;14.60;9.95;;;21.20;99.90;;;;;;4911229;29;20047;-88
2021/07/27 08:49:16;;;;;;;11.60;9.18;;;21.20;99.90;;;;;;4911108;29;20087;-87
2021/07/27 08:51:43;;;;;;;14.80;12.10;;;21.60;99.90;;;;;;4911020;29;20112;-86
2021/07/27 08:54:09;;;;;;;14.25;10.82;;;21.60;99.90;;;;;;4895455;29;20045;-87
2021/07/27 08:56:42;;;;;;;12.85;9.93;;;21.50;99.90;;;;;;4895746;29;20049;-86
2021/07/27 08:59:08;;;;;;;11.80;9.77;;;21.80;99.90;;;;;;4910995;29;20060;-86
2021/07/27 09:01:36;;;;;;;16.05;11.38;;;21.80;99.90;;;;;;4911197;29;20041;-87
2021/07/27 09:04:02;;;;;;;15.30;10.82;;;22.10;99.90;;;;;;4911173;29;20398;-86
2021/07/27 09:06:28;;;;;;;13.82;10.50;;;21.80;99.90;;;;;;4910832;29;20040;-87
2021/07/27 09:09:10;;;;;;;13.77;10.95;;;22.00;99.90;;;;;;4903742;29;20078;-86
2021/07/27 09:11:46;;;;;;;12.07;10.23;;;21.80;99.90;;;;;;4926603;29;20040;-86
2021/07/27 09:14:15;;;;;;;12.13;8.95;;;22.00;99.90;;;;;;4926427;29;20040;-87
2021/07/27 09:16:48;;;;;;;10.20;8.90;;;21.90;99.90;;;;;;4897257;29;20037;-85
2021/07/27 09:19:14;;;;;;;11.68;8.82;;;21.80;99.90;;;;;;4876285;29;20466;-87
2021/07/27 09:21:42;;;;;;;11.05;8.52;;;21.70;99.90;;;;;;4876398;29;20345;-86
2021/07/27 09:24:09;;;;;;;11.82;10.55;;;21.50;99.90;;;;;;4876192;29;20040;-86
2021/07/27 09:26:34;;;;;;;12.95;10.63;;;21.90;99.90;;;;;;4876204;29;20109;-86
2021/07/27 09:29:04;;;;;;;16.00;12.20;;;22.40;99.90;;;;;;4860874;29;20033;-87
2021/07/27 09:31:31;;;;;;;16.80;12.55;;;22.40;99.90;;;;;;4876056;29;20060;-87
2021/07/27 09:34:08;;;;;;;12.00;9.77;;;22.40;99.90;;;;;;4876369;29;20347;-86
2021/07/27 09:36:34;;;;;;;10.68;9.35;;;22.10;99.90;;;;;;4883528;29;20093;-86
2021/07/27 09:39:04;;;;;;;10.98;9.80;;;21.90;99.90;;;;;;4909717;29;20040;-86
2021/07/27 09:41:30;;;;;;;9.45;7.65;;;21.70;99.90;;;;;;4910244;29;20051;-87
2021/07/27 09:43:57;;;;;;;12.57;10.48;;;22.40;99.90;;;;;;4925943;29;20032;-86
2021/07/27 09:49:42;;;;;;;11.15;9.35;;;22.50;99.90;;;;;;4909259;29;20116;-85
2021/07/27 09:52:10;;;;;;;8.75;7.68;;;22.40;99.90;;;;;;4895513;29;20064;-86
2021/07/27 09:54:38;;;;;;;10.25;8.10;;;22.70;99.90;;;;;;4879129;29;20041;-86
2021/07/27 09:57:04;;;;;;;10.98;8.15;;;23.30;99.90;;;;;;4879016;29;20040;-86
2021/07/27 09:59:30;;;;;;;7.65;6.22;;;23.10;99.90;;;;;;4894473;29;20107;-85
2021/07/27 10:01:59;;;;;;;6.88;5.95;;;23.70;99.90;;;;;;4879228;29;20405;-86
2021/07/27 10:04:29;;;;;;;9.90;7.97;;;23.70;99.90;;;;;;4894497;29;20037;-85
2021/07/27 10:06:56;;;;;;;7.75;6.13;;;23.00;99.90;;;;;;4911190;29;20044;-85
2021/07/27 10:09:27;;;;;;;6.90;6.20;;;22.80;99.90;;;;;;4878850;29;20043;-87
2021/07/27 10:12:03;;;;;;;7.55;6.45;;;23.40;99.90;;;;;;4911144;29;20454;-87
2021/07/27 10:14:46;;;;;;;7.20;5.95;;;24.00;99.90;;;;;;4878943;29;20043;-85
2021/07/27 10:17:12;;;;;;;10.13;6.13;;;24.90;99.90;;;;;;4895412;29;20044;-85
2021/07/27 10:19:46;;;;;;;7.47;6.03;;;24.70;99.90;;;;;;4897231;29;20032;-84
2021/07/27 10:22:15;;;;;;;6.97;5.95;;;24.80;99.90;;;;;;4897299;29;20087;-86
2021/07/27 10:24:46;;;;;;;6.78;4.80;;;24.90;99.90;;;;;;4897099;29;20032;-85
2021/07/27 10:27:21;;;;;;;6.53;4.63;;;24.80;99.90;;;;;;4896841;29;20104;-86
2021/07/27 10:29:52;;;;;;;6.18;5.57;;;24.20;99.90;;;;;;4896890;29;20032;-86
2021/07/27 10:32:23;;;;;;;6.25;5.50;;;24.00;99.90;;;;;;4896930;29;20055;-85
2021/07/27 10:34:54;;;;;;;7.28;5.32;;;23.60;99.90;;;;;;4912613;29;20366;-85
2021/07/27 10:37:19;;;;;;;8.70;5.70;;;23.40;99.90;;;;;;4883012;29;20156;-84
2021/07/27 10:39:51;;;;;;;8.05;6.85;;;23.30;99.90;;;;;;4877929;29;20028;-85
2021/07/27 10:42:17;;;;;;;5.90;5.28;;;23.10;99.90;;;;;;4878020;29;20032;-86
2021/07/27 10:44:48;;;;;;;7.50;5.55;;;23.40;99.90;;;;;;4878086;29;20434;-84
2021/07/27 10:47:24;;;;;;;8.82;6.97;;;23.30;99.90;;;;;;4877399;29;20144;-85
2021/07/27 10:50:01;;;;;;;7.18;6.45;;;23.00;99.90;;;;;;4877944;29;20048;-85
2021/07/27 10:52:27;;;;;;;9.98;5.53;;;22.90;99.90;;;;;;4877451;29;20052;-85
2021/07/27 10:54:58;;;;;;;8.23;7.13;;;22.70;99.90;;;;;;4893018;29;20032;-84
2021/07/27 10:57:34;;;;;;;6.75;5.95;;;22.40;99.90;;;;;;4877604;29;20051;-85
2021/07/27 11:00:02;;;;;;;9.65;7.57;;;22.50;99.90;;;;;;4877890;29;20029;-85
2021/07/27 11:02:28;;;;;;;8.27;6.28;;;23.20;99.90;;;;;;4893268;29;20028;-85
2021/07/27 11:04:54;;;;;;;12.13;8.50;;;23.40;99.90;;;;;;4893156;29;20059;-85
2021/07/27 11:07:20;;;;;;;9.45;7.18;;;22.90;99.90;;;;;;4877287;29;20477;-86
2021/07/27 11:09:55;;;;;;;9.00;7.55;;;23.20;99.90;;;;;;4877567;29;20056;-86
2021/07/27 11:12:34;;;;;;;6.35;5.75;;;23.70;99.90;;;;;;4877525;29;20048;-85
2021/07/27 11:15:07;;;;;;;7.97;7.18;;;23.60;99.90;;;;;;4877729;29;20044;-86
2021/07/27 11:17:33;;;;;;;7.93;5.57;;;23.00;99.90;;;;;;4895738;29;20027;-86
2021/07/27 11:19:59;;;;;;;9.32;6.25;;;23.30;99.90;;;;;;4896238;29;20122;-85
2021/07/27 11:22:26;;;;;;;6.38;5.43;;;22.90;99.90;;;;;;4911710;29;20032;-85
2021/07/27 11:24:54;;;;;;;7.88;5.95;;;23.10;99.90;;;;;;4896116;29;20064;-86
2021/07/27 11:27:30;;;;;;;6.18;5.55;;;23.40;99.90;;;;;;4896660;29;20036;-85
2021/07/27 11:30:03;;;;;;;9.02;7.13;;;23.40;99.90;;;;;;4896004;29;20043;-86
2021/07/27 11:32:48;;;;;;;8.68;7.80;;;23.20;99.90;;;;;;4895850;29;20044;-86
2021/07/27 11:35:16;;;;;;;8.32;7.07;;;22.80;99.90;;;;;;4896004;29;20051;-86
2021/07/27 11:37:44;;;;;;;8.25;7.10;;;22.90;99.90;;;;;;4911838;29;20033;-85
2021/07/27 11:40:25;;;;;;;8.10;6.10;;;22.90;99.90;;;;;;4908485;29;20386;-85
2021/07/27 11:43:29;;;;;;;9.32;5.13;;;22.90;99.90;;;;;;4909620;29;20041;-85
2021/07/27 11:46:29;;;;;;;13.02;8.10;;;23.00;99.90;;;;;;4877223;29;20045;-86
2021/07/27 11:48:56;;;;;;;;;;;22.80;99.90;;;;;;4891411;23;20057;-86
2021/07/27 11:51:32;;;;;;;9.07;6.15;;;23.20;99.90;;;;;;4893026;29;19911;-86
2021/07/27 11:53:58;;;;;;;6.65;6.05;;;23.80;99.90;;;;;;4893087;29;20050;-86
2021/07/27 11:56:24;;;;;;;8.57;5.72;;;24.10;99.90;;;;;;4893460;29;20056;-84
2021/07/27 11:59:03;;;;;;;7.68;5.30;;;24.10;99.90;;;;;;4877395;29;20544;-84
2021/07/27 12:02:07;;;;;;;9.13;6.80;;;24.00;99.90;;;;;;4877288;29;20033;-85
2021/07/27 12:04:34;;;;;;;2.47;1.10;;;22.80;99.90;;;;;;4866829;29;20065;-88
2021/07/27 12:07:02;;;;;;;1.70;0.68;;;20.50;99.90;;;;;;4896456;29;20032;-86
2021/07/27 12:09:31;;;;;;;1.63;0.50;;;19.80;99.90;;;;;;4896539;29;20169;-86
2021/07/27 12:11:56;;;;;;;1.38;0.50;;;19.30;99.90;;;;;;4881144;29;20056;-86
2021/07/27 12:14:22;;;;;;;2.45;0.80;;;19.00;99.90;;;;;;4896654;29;20061;-86
2021/07/27 12:16:48;;;;;;;2.40;0.95;;;18.60;99.90;;;;;;4910420;29;20098;-86
2021/07/27 12:19:14;;;;;;;1.88;0.80;;;18.50;99.90;;;;;;4899454;29;20063;-86
2021/07/27 12:21:40;;;;;;;4.05;0.75;;;18.60;99.90;;;;;;4914808;29;20044;-86
2021/07/27 12:24:06;;;;;;;2.33;0.80;;;18.80;99.90;;;;;;4900012;29;20032;-86
2021/07/27 12:26:35;;;;;;;2.60;1.05;;;18.50;99.90;;;;;;4899024;29;20037;-85
2021/07/27 12:29:01;;;;;;;1.92;0.70;;;18.60;99.90;;;;;;4899136;29;20032;-85
2021/07/27 12:31:26;;;;;;;2.50;0.80;;;18.80;99.90;;;;;;4899339;29;20198;-86
2021/07/27 12:33:52;;;;;;;3.78;1.02;;;18.90;99.90;;;;;;4899146;29;20154;-86
2021/07/27 12:36:18;;;;;;;3.63;0.77;;;19.10;99.90;;;;;;4899322;29;20039;-85
2021/07/27 12:38:43;;;;;;;2.20;0.75;;;19.50;99.90;;;;;;4899041;29;20511;-85
2021/07/27 12:41:09;;;;;;;2.78;0.70;;;19.50;99.90;;;;;;4899217;29;20126;-85
2021/07/27 12:43:35;;;;;;;4.45;1.80;;;19.80;99.90;;;;;;4899191;29;20039;-85
2021/07/27 12:49:50;;;;;;;1.95;0.70;;;19.70;99.90;;;;;;4852694;29;20056;-85
2021/07/27 12:52:15;;;;;;;2.08;0.60;;;20.00;99.90;;;;;;4854014;29;20109;-85
2021/07/27 12:54:41;;;;;;;1.67;0.60;;;20.10;99.90;;;;;;4854087;29;20079;-85
2021/07/27 12:57:06;;;;;;;1.65;0.60;;;20.30;99.90;;;;;;4853917;29;20062;-85
2021/07/27 12:59:33;;;;;;;1.75;0.57;;;20.40;99.90;;;;;;4854079;29;20050;-86
2021/07/27 13:01:59;;;;;;;4.35;0.70;;;20.80;99.90;;;;;;4854182;29;20071;-85
2021/07/27 13:04:25;;;;;;;2.00;0.70;;;21.00;99.90;;;;;;4853934;29;20045;-85
2021/07/27 13:06:51;;;;;;;2.55;0.90;;;21.20;99.90;;;;;;4853801;29;20176;-85
2021/07/27 13:09:16;;;;;;;2.47;0.70;;;21.00;99.90;;;;;;4854071;29;20033;-85